createdAt,value
2018-06-03T00:01:20.001Z,60.27
2018-06-03T00:03:48.323Z,57.00
2018-06-03T00:06:16.759Z,55.93
2018-06-03T00:08:45.899Z,48.77
2018-06-03T00:11:14.251Z,49.70
2018-06-03T00:13:42.873Z,52.47
2018-06-03T00:16:11.230Z,51.83
2018-06-03T00:18:39.613Z,53.23
2018-06-03T00:21:35.304Z,52.07
2018-06-03T00:24:03.632Z,45.97
2018-06-03T00:26:32.067Z,51.50
2018-06-03T00:29:00.395Z,48.07
2018-06-03T00:31:28.751Z,49.83
2018-06-03T00:33:57.103Z,48.53
2018-06-03T00:36:44.130Z,49.50
2018-06-03T00:39:12.430Z,47.50
2018-06-03T00:41:40.702Z,47.67
2018-06-03T00:44:09.019Z,48.97
2018-06-03T00:46:37.402Z,49.63
2018-06-03T00:49:05.724Z,55.70
2018-06-03T00:51:34.059Z,53.10
2018-06-03T00:54:02.356Z,50.57
2018-06-03T00:56:48.385Z,47.80
2018-06-03T00:59:16.695Z,47.00
2018-06-03T01:01:44.999Z,50.10
2018-06-03T01:04:14.156Z,48.37
2018-06-03T01:06:42.451Z,50.10
2018-06-03T01:09:10.791Z,51.43
2018-06-03T01:11:39.099Z,44.83
2018-06-03T01:14:07.408Z,50.43
2018-06-03T01:16:35.739Z,49.80
2018-06-03T01:19:04.792Z,48.53
2018-06-03T01:21:33.087Z,48.83
2018-06-03T01:24:01.386Z,54.57
2018-06-03T01:26:29.743Z,50.43
2018-06-03T01:28:58.025Z,48.60
2018-06-03T01:31:26.456Z,48.77
2018-06-03T01:33:55.508Z,52.63
2018-06-03T01:36:23.818Z,55.27
2018-06-03T01:38:52.095Z,52.03
2018-06-03T01:41:20.395Z,51.13
2018-06-03T01:43:48.717Z,54.93
2018-06-03T01:46:17.052Z,53.87
2018-06-03T01:48:46.121Z,50.20
2018-06-03T01:51:14.418Z,52.67
2018-06-03T01:53:43.514Z,57.17
2018-06-03T01:56:12.549Z,55.67
2018-06-03T01:58:40.876Z,53.33
2018-06-03T02:01:09.174Z,58.30
2018-06-03T02:03:38.238Z,54.30
2018-06-03T02:06:06.513Z,55.37
2018-06-03T02:08:34.848Z,57.13
2018-06-03T02:11:03.165Z,55.90
2018-06-03T02:13:31.466Z,53.00
2018-06-03T02:16:00.639Z,56.07
2018-06-03T02:18:28.944Z,55.10
2018-06-03T02:20:58.055Z,53.57
2018-06-03T02:23:26.396Z,53.93
2018-06-03T02:25:54.703Z,61.97
2018-06-03T02:28:23.818Z,52.33
2018-06-03T02:30:52.140Z,55.03
2018-06-03T02:33:20.444Z,54.97
2018-06-03T02:35:49.569Z,55.37
2018-06-03T02:38:21.482Z,55.50
2018-06-03T02:40:49.803Z,53.17
2018-06-03T02:43:18.177Z,49.33
2018-06-03T02:45:47.244Z,55.30
2018-06-03T02:48:15.548Z,51.93
2018-06-03T02:50:43.853Z,57.67
2018-06-03T02:53:12.163Z,56.47
2018-06-03T02:55:40.480Z,56.03
2018-06-03T02:58:09.546Z,57.27
2018-06-03T03:00:37.843Z,59.27
2018-06-03T03:03:06.958Z,55.60
2018-06-03T03:05:35.266Z,58.07
2018-06-03T03:08:03.582Z,57.43
2018-06-03T03:10:31.904Z,60.67
2018-06-03T03:13:00.224Z,58.33
2018-06-03T03:15:28.525Z,62.63
2018-06-03T03:17:57.674Z,58.80
2018-06-03T03:20:25.971Z,59.97
2018-06-03T03:25:28.223Z,58.83
2018-06-03T03:27:56.543Z,57.67
2018-06-03T03:30:25.028Z,60.33
2018-06-03T03:32:53.428Z,57.97
2018-06-03T03:35:22.592Z,58.50
2018-06-03T03:37:50.883Z,58.50
2018-06-03T03:40:19.230Z,58.47
2018-06-03T03:42:47.533Z,56.90
2018-06-03T03:45:15.854Z,58.33
2018-06-03T03:47:44.174Z,56.80
2018-06-03T03:50:12.471Z,63.27
2018-06-03T03:52:40.905Z,55.63
2018-06-03T03:55:12.336Z,55.10
2018-06-03T03:57:40.621Z,54.93
2018-06-03T04:00:08.928Z,58.70
2018-06-03T04:02:37.231Z,59.77
2018-06-03T04:05:05.544Z,58.20
2018-06-03T04:07:33.870Z,64.33
2018-06-03T04:10:02.202Z,63.60
2018-06-03T04:12:31.284Z,64.23
2018-06-03T04:15:00.393Z,59.77
2018-06-03T04:17:29.454Z,63.43
2018-06-03T04:19:57.869Z,63.37
2018-06-03T04:22:26.927Z,64.27
2018-06-03T04:25:23.514Z,58.43
2018-06-03T04:27:56.888Z,60.27
2018-06-03T04:30:26.457Z,56.67
2018-06-03T04:35:30.828Z,58.80
2018-06-03T04:38:00.465Z,58.37
2018-06-03T04:40:30.085Z,53.63
2018-06-03T04:42:59.698Z,54.50
2018-06-03T04:45:29.263Z,56.13
2018-06-03T04:47:58.900Z,52.67
2018-06-03T04:50:28.831Z,50.70
2018-06-03T04:52:58.564Z,52.93
2018-06-03T04:55:28.108Z,52.87
2018-06-03T04:57:57.839Z,53.07
2018-06-03T05:00:27.378Z,47.83
2018-06-03T05:02:56.952Z,46.17
2018-06-03T05:05:26.647Z,41.77
2018-06-03T05:07:57.115Z,42.77
2018-06-03T05:10:26.680Z,42.63
2018-06-03T05:12:59.560Z,44.37
2018-06-03T05:15:29.191Z,45.53
2018-06-03T05:17:58.975Z,44.63
2018-06-03T05:23:05.007Z,51.70
2018-06-03T05:25:34.581Z,51.87
2018-06-03T05:28:04.285Z,53.33
2018-06-03T05:30:33.925Z,51.50
2018-06-03T05:33:03.519Z,55.93
2018-06-03T05:35:33.135Z,52.83
2018-06-03T05:38:02.878Z,58.57
2018-06-03T05:40:32.476Z,59.23
2018-06-03T05:43:02.168Z,59.37
2018-06-03T05:45:31.796Z,56.23
2018-06-03T05:48:01.411Z,56.90
2018-06-03T05:50:31.132Z,59.27
2018-06-03T05:53:00.801Z,57.53
2018-06-03T05:55:30.432Z,63.97
2018-06-03T05:58:00.064Z,58.23
2018-06-03T06:00:29.683Z,56.13
2018-06-03T06:02:59.345Z,53.40
2018-06-03T06:05:29.289Z,51.10
2018-06-03T06:07:58.838Z,50.50
2018-06-03T06:10:28.494Z,50.57
2018-06-03T06:12:58.211Z,49.50
2018-06-03T06:15:31.595Z,49.87
2018-06-03T06:18:01.204Z,52.60
2018-06-03T06:20:30.862Z,51.97
2018-06-03T06:23:00.625Z,48.23
2018-06-03T06:25:30.396Z,51.07
2018-06-03T06:27:59.984Z,48.30
2018-06-03T06:30:29.619Z,51.03
2018-06-03T06:32:59.276Z,48.67
2018-06-03T06:38:04.036Z,53.23
2018-06-03T06:40:33.690Z,49.60
2018-06-03T06:43:03.244Z,53.00
2018-06-03T06:45:32.895Z,51.10
2018-06-03T06:48:02.543Z,50.37
2018-06-03T06:50:36.130Z,52.27
2018-06-03T06:53:05.861Z,50.43
2018-06-03T06:55:35.489Z,48.90
2018-06-03T06:58:05.405Z,50.20
2018-06-03T07:00:34.981Z,50.70
2018-06-03T07:03:04.605Z,54.33
2018-06-03T07:05:34.259Z,52.60
2018-06-03T07:08:04.076Z,51.03
2018-06-03T07:13:09.314Z,51.83
2018-06-03T07:15:38.894Z,53.10
2018-06-03T07:18:08.583Z,52.67
2018-06-03T07:20:38.181Z,49.50
2018-06-03T07:23:07.774Z,47.40
2018-06-03T07:25:37.440Z,45.57
2018-06-03T07:28:07.106Z,49.27
2018-06-03T07:30:36.713Z,50.83
2018-06-03T07:33:06.461Z,48.87
2018-06-03T07:35:36.088Z,46.03
2018-06-03T07:38:05.735Z,47.83
2018-06-03T07:40:35.337Z,41.17
2018-06-03T07:43:08.415Z,35.60
2018-06-03T07:45:38.163Z,41.33
2018-06-03T07:48:07.852Z,38.77
2018-06-03T07:50:37.503Z,42.70
2018-06-03T07:53:07.067Z,39.27
2018-06-03T07:55:36.708Z,39.40
2018-06-03T07:58:06.313Z,39.73
2018-06-03T08:00:35.932Z,38.07
2018-06-03T08:03:05.689Z,37.00
2018-06-03T08:05:35.420Z,39.30
2018-06-03T08:08:05.202Z,39.97
2018-06-03T08:10:34.914Z,41.50
2018-06-03T08:13:04.515Z,39.53
2018-06-03T08:15:34.190Z,44.87
2018-06-03T08:18:03.859Z,41.20
2018-06-03T08:20:33.553Z,40.93
2018-06-03T08:23:03.224Z,37.97
2018-06-03T08:25:32.854Z,38.90
2018-06-03T08:28:02.518Z,37.23
2018-06-03T08:30:32.653Z,38.27
2018-06-03T08:33:02.259Z,37.33
2018-06-03T08:35:31.849Z,39.27
2018-06-03T08:38:01.467Z,37.20
2018-06-03T08:40:31.095Z,35.53
2018-06-03T08:43:00.729Z,34.80
2018-06-03T08:45:30.339Z,35.93
2018-06-03T08:47:59.907Z,29.63
2018-06-03T08:50:29.606Z,33.28
2018-06-03T08:52:59.162Z,26.90
2018-06-03T08:55:28.806Z,24.65
2018-06-03T08:57:58.450Z,25.95
2018-06-03T09:00:28.102Z,28.02
2018-06-03T09:02:57.737Z,28.53
2018-06-03T09:05:27.449Z,27.80
2018-06-03T09:07:57.019Z,29.87
2018-06-03T09:10:26.786Z,30.77
2018-06-03T09:12:56.418Z,32.07
2018-06-03T09:15:29.359Z,30.97
2018-06-03T09:17:58.960Z,30.97
2018-06-03T09:20:31.617Z,30.23
2018-06-03T09:23:01.322Z,27.87
2018-06-03T09:25:31.011Z,30.70
2018-06-03T09:28:00.670Z,33.20
2018-06-03T09:30:30.345Z,30.60
2018-06-03T09:33:00.013Z,33.43
2018-06-03T09:35:30.035Z,32.17
2018-06-03T09:37:59.758Z,35.20
2018-06-03T09:40:29.560Z,36.80
2018-06-03T09:42:59.273Z,33.20
2018-06-03T09:45:29.383Z,31.13
2018-06-03T09:47:59.158Z,32.80
2018-06-03T09:50:28.924Z,31.90
2018-06-03T09:52:58.675Z,29.90
2018-06-03T09:55:28.450Z,27.60
2018-06-03T09:57:58.054Z,29.67
2018-06-03T10:00:28.753Z,28.33
2018-06-03T10:02:58.331Z,29.53
2018-06-03T10:05:28.527Z,29.33
2018-06-03T10:08:02.084Z,27.60
2018-06-03T10:10:31.894Z,27.43
2018-06-03T10:13:01.552Z,25.57
2018-06-03T10:15:31.159Z,26.97
2018-06-03T10:18:00.837Z,24.50
2018-06-03T10:20:30.569Z,25.80
2018-06-03T10:23:00.195Z,27.03
2018-06-03T10:25:29.931Z,27.93
2018-06-03T10:28:03.148Z,28.57
2018-06-03T10:30:32.954Z,29.53
2018-06-03T10:33:02.871Z,29.73
2018-06-03T10:35:32.834Z,27.37
2018-06-03T10:38:02.709Z,30.63
2018-06-03T10:40:32.516Z,27.43
2018-06-03T10:43:02.142Z,26.03
2018-06-03T10:45:31.989Z,29.20
2018-06-03T10:48:01.657Z,25.93
2018-06-03T10:50:31.414Z,33.27
2018-06-03T10:53:01.183Z,29.47
2018-06-03T10:55:30.918Z,25.70
2018-06-03T10:58:00.921Z,28.70
2018-06-03T11:00:30.574Z,29.87
2018-06-03T11:03:00.369Z,31.47
2018-06-03T11:05:30.184Z,27.97
2018-06-03T11:07:59.926Z,25.77
2018-06-03T11:10:29.819Z,26.17
2018-06-03T11:12:59.499Z,26.73
2018-06-03T11:15:29.209Z,22.90
2018-06-03T11:17:59.003Z,25.93
2018-06-03T11:20:29.046Z,27.83
2018-06-03T11:22:58.785Z,25.30
2018-06-03T11:25:28.449Z,28.27
2018-06-03T11:27:58.172Z,26.33
2018-06-03T11:30:27.894Z,28.70
2018-06-03T11:32:57.568Z,26.77
2018-06-03T11:35:27.382Z,27.00
2018-06-03T11:37:57.066Z,24.40
2018-06-03T11:40:26.796Z,25.13
2018-06-03T11:42:56.517Z,24.90
2018-06-03T11:45:26.255Z,21.67
2018-06-03T11:47:55.882Z,19.53
2018-06-03T11:50:25.513Z,21.53
2018-06-03T11:52:55.386Z,20.83
2018-06-03T11:55:25.124Z,21.63
2018-06-03T11:58:41.493Z,23.63
2018-06-03T12:01:11.564Z,23.00
2018-06-03T12:03:41.610Z,22.23
2018-06-03T12:06:11.346Z,22.70
2018-06-03T12:08:41.327Z,23.70
2018-06-03T12:11:11.029Z,22.97
2018-06-03T12:13:40.908Z,24.37
2018-06-03T12:16:10.724Z,23.50
2018-06-03T12:18:40.515Z,21.90
2018-06-03T12:21:10.336Z,19.90
2018-06-03T12:23:40.840Z,21.13
2018-06-03T12:26:10.519Z,22.30
2018-06-03T12:28:40.355Z,19.53
2018-06-03T12:31:10.084Z,20.10
2018-06-03T12:33:39.774Z,17.87
2018-06-03T12:36:09.382Z,18.80
2018-06-03T12:38:38.745Z,16.40
2018-06-03T12:41:08.466Z,18.00
2018-06-03T12:43:38.150Z,18.40
2018-06-03T12:46:07.894Z,18.30
2018-06-03T12:48:37.542Z,19.50
2018-06-03T12:51:07.242Z,17.87
2018-06-03T12:53:36.957Z,22.17
2018-06-03T12:56:06.619Z,18.50
2018-06-03T12:58:36.219Z,19.57
2018-06-03T13:01:05.877Z,21.97
2018-06-03T13:03:35.412Z,20.97
2018-06-03T13:06:05.059Z,17.30
2018-06-03T13:11:09.541Z,20.47
2018-06-03T13:13:39.108Z,19.40
2018-06-03T13:16:08.725Z,18.10
2018-06-03T13:18:38.500Z,20.50
2018-06-03T13:21:08.154Z,22.20
2018-06-03T13:23:37.835Z,20.63
2018-06-03T13:26:07.580Z,19.27
2018-06-03T13:28:41.052Z,22.37
2018-06-03T13:31:10.691Z,19.47
2018-06-03T13:33:40.438Z,18.40
2018-06-03T13:36:10.093Z,18.57
2018-06-03T13:38:39.962Z,22.33
2018-06-03T13:41:09.598Z,20.57
2018-06-03T13:43:39.252Z,21.90
2018-06-03T13:46:08.911Z,22.43
2018-06-03T13:51:13.618Z,23.97
2018-06-03T13:53:43.496Z,20.97
2018-06-03T13:56:13.219Z,26.20
2018-06-03T13:58:42.845Z,21.97
2018-06-03T14:01:12.509Z,20.07
2018-06-03T14:03:42.247Z,20.47
2018-06-03T14:06:11.896Z,21.20
2018-06-03T14:08:41.954Z,20.20
2018-06-03T14:11:11.670Z,23.10
2018-06-03T14:13:41.370Z,20.83
2018-06-03T14:16:11.149Z,20.73
2018-06-03T14:18:40.788Z,21.27
2018-06-03T14:21:10.484Z,20.73
2018-06-03T14:23:40.169Z,21.47
2018-06-03T14:26:09.929Z,18.33
2018-06-03T14:28:39.505Z,16.93
2018-06-03T14:33:44.715Z,19.10
2018-06-03T14:36:15.723Z,19.53
2018-06-03T14:38:45.444Z,22.63
2018-06-03T14:41:15.164Z,21.33
2018-06-03T14:43:44.821Z,17.37
2018-06-03T14:46:18.433Z,19.17
2018-06-03T14:48:47.989Z,18.87
2018-06-03T14:51:17.645Z,18.27
2018-06-03T14:53:47.236Z,17.23
2018-06-03T14:56:16.923Z,17.03
2018-06-03T14:58:46.481Z,16.17
2018-06-03T15:01:16.061Z,16.83
2018-06-03T15:03:45.711Z,15.90
2018-06-03T15:06:15.338Z,14.87
2018-06-03T15:08:44.960Z,15.90
2018-06-03T15:11:14.658Z,14.90
2018-06-03T15:13:44.295Z,14.93
2018-06-03T15:16:17.668Z,15.73
2018-06-03T15:18:47.372Z,17.93
2018-06-03T15:21:17.119Z,14.53
2018-06-03T15:23:46.936Z,14.40
2018-06-03T15:26:16.759Z,15.60
2018-06-03T15:28:46.354Z,13.40
2018-06-03T15:31:16.082Z,13.80
2018-06-03T15:33:45.701Z,13.47
2018-06-03T15:36:15.402Z,14.77
2018-06-03T15:38:45.117Z,13.13
2018-06-03T15:43:50.215Z,12.63
2018-06-03T15:46:19.840Z,15.90
2018-06-03T15:48:49.411Z,13.63
2018-06-03T15:51:18.982Z,12.73
2018-06-03T15:53:48.636Z,12.40
2018-06-03T15:56:18.437Z,13.20
2018-06-03T15:58:48.124Z,11.60
2018-06-03T16:01:17.773Z,13.20
2018-06-03T16:03:47.403Z,14.63
2018-06-03T16:06:19.996Z,12.63
2018-06-03T16:08:49.630Z,13.47
2018-06-03T16:11:19.281Z,15.07
2018-06-03T16:13:48.924Z,14.03
2018-06-03T16:16:18.879Z,15.03
2018-06-03T16:18:48.617Z,15.80
2018-06-03T16:21:18.281Z,16.63
2018-06-03T16:23:47.955Z,15.40
2018-06-03T16:26:17.874Z,14.87
2018-06-03T16:28:47.568Z,17.07
2018-06-03T16:31:17.316Z,14.57
2018-06-03T16:33:47.061Z,14.47
2018-06-03T16:36:16.693Z,16.70
2018-06-03T16:38:49.821Z,15.00
2018-06-03T16:41:19.571Z,12.97
2018-06-03T16:46:24.179Z,14.00
2018-06-03T16:51:28.878Z,17.57
2018-06-03T16:54:05.643Z,16.67
2018-06-03T16:56:35.342Z,15.87
2018-06-03T16:59:05.432Z,15.77
2018-06-03T17:01:35.068Z,15.67
2018-06-03T17:04:05.892Z,15.17
2018-06-03T17:06:35.532Z,17.67
2018-06-03T17:09:06.805Z,16.53
2018-06-03T17:11:36.479Z,17.43
2018-06-03T17:14:06.197Z,15.53
2018-06-03T17:16:35.838Z,16.73
2018-06-03T17:19:05.518Z,17.30
2018-06-03T17:21:35.146Z,14.57
2018-06-03T17:24:05.222Z,17.63
2018-06-03T17:26:34.947Z,16.40
2018-06-03T17:29:07.520Z,14.50
2018-06-03T17:31:37.298Z,15.13
2018-06-03T17:34:07.079Z,14.53
2018-06-03T17:36:36.708Z,14.60
2018-06-03T17:39:08.969Z,16.33
2018-06-03T17:41:38.303Z,15.87
2018-06-03T17:44:07.955Z,16.07
2018-06-03T17:46:37.669Z,16.47
2018-06-03T17:49:07.623Z,18.57
2018-06-03T17:51:37.561Z,17.33
2018-06-03T17:54:07.283Z,15.27
2018-06-03T17:56:37.049Z,18.37
2018-06-03T17:59:06.892Z,16.17
2018-06-03T18:01:36.726Z,15.33
2018-06-03T18:04:06.647Z,17.03
2018-06-03T18:06:36.415Z,15.43
2018-06-03T18:09:08.926Z,15.63
2018-06-03T18:11:38.585Z,16.03
2018-06-03T18:14:08.586Z,19.47
2018-06-03T18:16:38.542Z,17.47
2018-06-03T18:19:08.266Z,17.13
2018-06-03T18:21:39.661Z,18.03
2018-06-03T18:24:09.223Z,16.40
2018-06-03T18:26:38.943Z,18.53
2018-06-03T18:29:08.653Z,18.23
2018-06-03T18:31:38.409Z,15.83
2018-06-03T18:34:08.158Z,17.37
2018-06-03T18:36:41.470Z,17.13
2018-06-03T18:39:11.210Z,17.10
2018-06-03T18:41:40.943Z,16.23
2018-06-03T18:44:10.692Z,22.27
2018-06-03T18:46:40.456Z,18.20
2018-06-03T18:49:10.345Z,19.00
2018-06-03T18:51:40.078Z,17.23
2018-06-03T18:54:09.793Z,16.60
2018-06-03T18:56:39.538Z,17.00
2018-06-03T18:59:09.501Z,16.23
2018-06-03T19:01:41.140Z,18.47
2018-06-03T19:04:11.092Z,17.83
2018-06-03T19:06:40.898Z,15.03
2018-06-03T19:09:10.645Z,17.73
2018-06-03T19:11:40.383Z,16.80
2018-06-03T19:14:10.304Z,16.13
2018-06-03T19:16:40.758Z,15.53
2018-06-03T19:19:10.585Z,18.87
2018-06-03T19:21:40.420Z,21.73
2018-06-03T19:24:10.293Z,16.83
2018-06-03T19:26:40.170Z,32.07
2018-06-03T19:29:10.225Z,17.57
2018-06-03T19:31:40.016Z,18.03
2018-06-03T19:34:09.943Z,17.60
2018-06-03T19:36:40.007Z,17.90
2018-06-03T19:39:10.471Z,17.07
2018-06-03T19:41:40.368Z,16.93
2018-06-03T19:44:10.443Z,16.97
2018-06-03T19:46:40.473Z,18.27
2018-06-03T19:49:10.149Z,20.00
2018-06-03T19:51:40.031Z,17.70
2018-06-03T19:54:09.961Z,15.87
2018-06-03T19:56:39.889Z,17.93
2018-06-03T19:59:09.685Z,16.83
2018-06-03T20:01:39.529Z,19.37
2018-06-03T20:04:09.316Z,18.63
2018-06-03T20:06:39.152Z,15.00
2018-06-03T20:09:09.363Z,16.03
2018-06-03T20:11:39.064Z,16.83
2018-06-03T20:14:13.160Z,17.67
2018-06-03T20:16:42.962Z,17.17
2018-06-03T20:19:13.308Z,15.80
2018-06-03T20:24:18.532Z,15.80
2018-06-03T20:26:48.812Z,15.40
2018-06-03T20:29:18.467Z,18.67
2018-06-03T20:31:48.198Z,19.50
2018-06-03T20:34:17.883Z,16.00
2018-06-03T21:15:12.683Z,18.43
2018-06-03T21:17:43.462Z,18.70
2018-06-03T21:25:37.710Z,17.53
2018-06-03T21:28:07.395Z,17.80
2018-06-03T21:30:37.071Z,17.97
2018-06-03T21:33:06.959Z,19.50
2018-06-03T21:35:36.629Z,18.03
2018-06-03T21:38:11.899Z,17.10
2018-06-03T21:40:41.627Z,17.73
2018-06-03T21:43:11.280Z,17.60
2018-06-03T21:45:40.993Z,18.37
2018-06-03T21:48:10.676Z,17.07
2018-06-03T21:50:40.358Z,18.00
2018-06-03T21:53:10.077Z,18.90
2018-06-03T21:55:39.726Z,19.77
2018-06-03T21:58:09.407Z,20.27
2018-06-03T22:00:39.040Z,19.57
2018-06-03T22:03:08.693Z,19.70
2018-06-03T22:05:38.325Z,18.47
2018-06-03T22:08:07.934Z,19.90
2018-06-03T22:10:37.755Z,21.23
2018-06-03T22:13:07.536Z,19.50
2018-06-03T22:15:37.310Z,18.83
2018-06-03T22:18:07.086Z,20.07
2018-06-03T22:20:36.993Z,19.47
2018-06-03T22:23:06.722Z,21.90
2018-06-03T22:25:36.405Z,21.93
2018-06-03T22:28:06.127Z,25.13
2018-06-03T22:30:35.876Z,24.77
2018-06-03T22:33:05.609Z,21.77
2018-06-03T22:35:35.294Z,21.87
2018-06-03T22:38:04.912Z,22.30
2018-06-03T22:40:34.975Z,21.27
2018-06-03T22:43:04.963Z,20.00
2018-06-03T22:45:34.591Z,20.37
2018-06-03T22:48:04.207Z,24.90
2018-06-03T22:50:33.978Z,23.27
2018-06-03T22:53:03.581Z,23.60
2018-06-03T22:55:33.226Z,22.93
2018-06-03T22:58:02.525Z,22.90
2018-06-03T23:00:33.132Z,22.47
2018-06-03T23:03:08.068Z,24.27
2018-06-03T23:05:37.773Z,24.63
2018-06-03T23:08:07.360Z,25.10
2018-06-03T23:10:36.991Z,24.87
2018-06-03T23:13:07.112Z,24.83
2018-06-03T23:15:36.850Z,27.43
2018-06-03T23:18:06.460Z,27.77
2018-06-03T23:20:36.178Z,28.43
2018-06-03T23:23:06.043Z,28.50
2018-06-03T23:25:35.640Z,28.80
2018-06-03T23:28:05.292Z,27.63
2018-06-03T23:30:34.852Z,28.00
2018-06-03T23:33:04.473Z,28.67
2018-06-03T23:35:34.040Z,28.77
2018-06-03T23:38:03.640Z,30.43
2018-06-03T23:40:33.199Z,31.13
2018-06-03T23:43:02.759Z,33.40
2018-06-03T23:45:32.338Z,28.73
2018-06-03T23:48:01.948Z,32.40
2018-06-03T23:50:31.568Z,31.60
2018-06-03T23:53:01.218Z,34.67
2018-06-03T23:55:30.853Z,33.00
2018-06-03T23:58:00.516Z,34.73
